sensor_id;sensor_type;location;lat;lon;timestamp;pressure;altitude;pressure_sealevel;temperature;humidity
70954;BME280;58618;47.490;8.736;2022-07-04T00:01:08;96724.47;;;17.69;100.00
70954;BME280;58618;47.490;8.736;2022-07-04T00:03:56;96725.38;;;17.73;100.00
70954;BME280;58618;47.490;8.736;2022-07-04T00:06:44;96719.56;;;17.76;100.00
70954;BME280;58618;47.490;8.736;2022-07-04T00:09:31;96722.00;;;17.81;100.00
70954;BME280;58618;47.490;8.736;2022-07-04T00:12:19;96716.91;;;17.85;100.00
70954;BME280;58618;47.490;8.736;2022-07-04T00:15:07;96714.28;;;17.85;100.00
70954;BME280;58618;47.490;8.736;2022-07-04T00:17:56;96707.66;;;17.87;100.00
70954;BME280;58618;47.490;8.736;2022-07-04T00:20:44;96716.25;;;17.88;100.00
70954;BME280;58618;47.490;8.736;2022-07-04T00:23:31;96710.56;;;17.94;100.00
70954;BME280;58618;47.490;8.736;2022-07-04T00:26:18;96724.69;;;17.93;100.00
70954;BME280;58618;47.490;8.736;2022-07-04T00:29:09;96739.56;;;17.93;100.00
70954;BME280;58618;47.490;8.736;2022-07-04T00:31:56;96727.00;;;17.95;100.00
70954;BME280;58618;47.490;8.736;2022-07-04T00:34:45;96723.44;;;17.99;100.00
70954;BME280;58618;47.490;8.736;2022-07-04T00:37:32;96721.53;;;18.08;100.00
70954;BME280;58618;47.490;8.736;2022-07-04T00:40:20;96711.75;;;18.05;100.00
70954;BME280;58618;47.490;8.736;2022-07-04T00:43:07;96725.31;;;17.90;100.00
70954;BME280;58618;47.490;8.736;2022-07-04T00:45:55;96708.00;;;17.86;100.00
70954;BME280;58618;47.490;8.736;2022-07-04T00:48:43;96705.81;;;17.88;100.00
70954;BME280;58618;47.490;8.736;2022-07-04T00:51:32;96705.63;;;18.01;100.00
70954;BME280;58618;47.490;8.736;2022-07-04T00:54:20;96716.31;;;18.08;100.00
70954;BME280;58618;47.490;8.736;2022-07-04T00:57:09;96723.41;;;18.08;100.00
70954;BME280;58618;47.490;8.736;2022-07-04T00:59:56;96721.59;;;18.00;100.00
70954;BME280;58618;47.490;8.736;2022-07-04T01:02:43;96723.72;;;18.06;100.00
70954;BME280;58618;47.490;8.736;2022-07-04T01:05:31;96722.47;;;18.12;100.00
70954;BME280;58618;47.490;8.736;2022-07-04T01:08:20;96712.44;;;18.14;100.00
70954;BME280;58618;47.490;8.736;2022-07-04T01:11:08;96714.16;;;18.10;100.00
70954;BME280;58618;47.490;8.736;2022-07-04T01:13:55;96716.31;;;18.08;100.00
70954;BME280;58618;47.490;8.736;2022-07-04T01:16:42;96729.38;;;18.08;100.00
70954;BME280;58618;47.490;8.736;2022-07-04T01:19:30;96731.72;;;18.01;100.00
70954;BME280;58618;47.490;8.736;2022-07-04T01:22:18;96736.94;;;18.01;100.00
70954;BME280;58618;47.490;8.736;2022-07-04T01:25:07;96727.41;;;18.05;100.00
70954;BME280;58618;47.490;8.736;2022-07-04T01:27:55;96726.19;;;18.03;100.00
70954;BME280;58618;47.490;8.736;2022-07-04T01:30:42;96739.09;;;17.99;100.00
70954;BME280;58618;47.490;8.736;2022-07-04T01:33:30;96741.28;;;17.97;100.00
70954;BME280;58618;47.490;8.736;2022-07-04T01:36:17;96739.63;;;17.84;100.00
70954;BME280;58618;47.490;8.736;2022-07-04T01:39:06;96758.78;;;17.88;100.00
70954;BME280;58618;47.490;8.736;2022-07-04T01:41:53;96766.47;;;17.85;100.00
70954;BME280;58618;47.490;8.736;2022-07-04T01:44:41;96779.06;;;17.91;100.00
70954;BME280;58618;47.490;8.736;2022-07-04T01:47:28;96771.66;;;17.93;100.00
70954;BME280;58618;47.490;8.736;2022-07-04T01:50:15;96759.56;;;17.89;100.00
70954;BME280;58618;47.490;8.736;2022-07-04T01:53:03;96747.44;;;17.84;100.00
70954;BME280;58618;47.490;8.736;2022-07-04T01:55:52;96736.28;;;17.66;100.00
70954;BME280;58618;47.490;8.736;2022-07-04T01:58:39;96736.47;;;17.53;100.00
70954;BME280;58618;47.490;8.736;2022-07-04T02:01:28;96748.44;;;17.62;100.00
70954;BME280;58618;47.490;8.736;2022-07-04T02:04:18;96749.03;;;17.68;100.00
70954;BME280;58618;47.490;8.736;2022-07-04T02:07:05;96745.31;;;17.78;100.00
70954;BME280;58618;47.490;8.736;2022-07-04T02:09:53;96744.72;;;17.72;100.00
70954;BME280;58618;47.490;8.736;2022-07-04T02:12:42;96775.69;;;17.82;100.00
70954;BME280;58618;47.490;8.736;2022-07-04T02:15:47;96804.84;;;17.84;100.00
70954;BME280;58618;47.490;8.736;2022-07-04T02:18:34;96814.66;;;17.87;100.00
70954;BME280;58618;47.490;8.736;2022-07-04T02:21:21;96818.66;;;17.93;100.00
70954;BME280;58618;47.490;8.736;2022-07-04T02:24:09;96826.94;;;17.95;100.00
70954;BME280;58618;47.490;8.736;2022-07-04T02:26:56;96850.91;;;17.97;100.00
70954;BME280;58618;47.490;8.736;2022-07-04T02:29:45;96865.94;;;18.00;100.00
70954;BME280;58618;47.490;8.736;2022-07-04T02:32:32;96872.53;;;17.98;100.00
70954;BME280;58618;47.490;8.736;2022-07-04T02:35:20;96881.13;;;17.98;100.00
70954;BME280;58618;47.490;8.736;2022-07-04T02:38:07;96897.41;;;17.95;100.00
70954;BME280;58618;47.490;8.736;2022-07-04T02:40:54;96921.53;;;17.92;100.00
70954;BME280;58618;47.490;8.736;2022-07-04T02:43:42;96931.03;;;17.88;100.00
70954;BME280;58618;47.490;8.736;2022-07-04T02:46:30;96921.66;;;17.87;100.00
70954;BME280;58618;47.490;8.736;2022-07-04T02:49:19;96937.81;;;17.89;100.00
70954;BME280;58618;47.490;8.736;2022-07-04T02:52:07;96960.22;;;17.90;100.00
70954;BME280;58618;47.490;8.736;2022-07-04T02:54:54;96963.91;;;17.89;100.00
70954;BME280;58618;47.490;8.736;2022-07-04T02:57:41;96966.03;;;17.87;100.00
70954;BME280;58618;47.490;8.736;2022-07-04T03:00:29;96966.50;;;17.89;100.00
70954;BME280;58618;47.490;8.736;2022-07-04T03:03:17;96967.28;;;17.81;100.00
70954;BME280;58618;47.490;8.736;2022-07-04T03:06:05;96974.94;;;17.69;100.00
70954;BME280;58618;47.490;8.736;2022-07-04T03:08:52;96985.09;;;17.79;100.00
70954;BME280;58618;47.490;8.736;2022-07-04T03:11:40;96976.50;;;17.70;100.00
70954;BME280;58618;47.490;8.736;2022-07-04T03:14:27;96975.41;;;17.71;100.00
70954;BME280;58618;47.490;8.736;2022-07-04T03:17:14;96977.56;;;17.78;100.00
70954;BME280;58618;47.490;8.736;2022-07-04T03:20:04;96973.09;;;17.61;100.00
70954;BME280;58618;47.490;8.736;2022-07-04T03:22:51;96980.16;;;17.69;100.00
70954;BME280;58618;47.490;8.736;2022-07-04T03:25:40;96974.75;;;17.57;100.00
70954;BME280;58618;47.490;8.736;2022-07-04T03:28:27;96972.00;;;17.62;100.00
70954;BME280;58618;47.490;8.736;2022-07-04T03:31:15;96973.72;;;17.66;100.00
70954;BME280;58618;47.490;8.736;2022-07-04T03:34:02;96966.06;;;17.70;100.00
70954;BME280;58618;47.490;8.736;2022-07-04T03:36:51;96957.75;;;17.68;100.00
70954;BME280;58618;47.490;8.736;2022-07-04T03:39:38;96951.16;;;17.70;100.00
70954;BME280;58618;47.490;8.736;2022-07-04T03:42:27;96941.19;;;17.72;100.00
70954;BME280;58618;47.490;8.736;2022-07-04T03:45:14;96923.69;;;17.73;100.00
70954;BME280;58618;47.490;8.736;2022-07-04T03:48:02;96893.44;;;17.63;100.00
70954;BME280;58618;47.490;8.736;2022-07-04T03:50:49;96867.03;;;17.56;100.00
70954;BME280;58618;47.490;8.736;2022-07-04T03:53:38;96846.63;;;17.50;100.00
70954;BME280;58618;47.490;8.736;2022-07-04T03:56:25;96831.72;;;17.50;100.00
70954;BME280;58618;47.490;8.736;2022-07-04T03:59:13;96825.44;;;17.51;100.00
70954;BME280;58618;47.490;8.736;2022-07-04T04:02:00;96812.13;;;17.44;100.00
70954;BME280;58618;47.490;8.736;2022-07-04T04:04:47;96806.59;;;17.37;100.00
70954;BME280;58618;47.490;8.736;2022-07-04T04:07:54;96821.47;;;17.37;100.00
70954;BME280;58618;47.490;8.736;2022-07-04T04:10:42;96838.78;;;17.58;100.00
70954;BME280;58618;47.490;8.736;2022-07-04T04:13:30;96852.78;;;17.71;100.00
70954;BME280;58618;47.490;8.736;2022-07-04T04:16:17;96856.59;;;17.73;100.00
70954;BME280;58618;47.490;8.736;2022-07-04T04:19:04;96851.53;;;17.77;100.00
70954;BME280;58618;47.490;8.736;2022-07-04T04:21:52;96850.94;;;17.80;100.00
70954;BME280;58618;47.490;8.736;2022-07-04T04:24:39;96843.53;;;17.82;100.00
70954;BME280;58618;47.490;8.736;2022-07-04T04:27:28;96818.56;;;17.64;100.00
70954;BME280;58618;47.490;8.736;2022-07-04T04:30:15;96827.28;;;17.51;100.00
70954;BME280;58618;47.490;8.736;2022-07-04T04:33:03;96823.00;;;17.63;100.00
70954;BME280;58618;47.490;8.736;2022-07-04T04:35:50;96836.50;;;17.74;100.00
70954;BME280;58618;47.490;8.736;2022-07-04T04:38:37;96850.16;;;17.80;100.00
70954;BME280;58618;47.490;8.736;2022-07-04T04:41:25;96844.16;;;17.79;100.00
70954;BME280;58618;47.490;8.736;2022-07-04T04:44:13;96850.28;;;17.83;100.00
70954;BME280;58618;47.490;8.736;2022-07-04T04:47:01;96870.56;;;17.86;100.00
70954;BME280;58618;47.490;8.736;2022-07-04T04:49:51;96897.59;;;17.90;100.00
70954;BME280;58618;47.490;8.736;2022-07-04T04:52:38;96906.47;;;17.89;100.00
70954;BME280;58618;47.490;8.736;2022-07-04T04:55:26;96913.38;;;17.94;100.00
70954;BME280;58618;47.490;8.736;2022-07-04T04:58:13;96938.88;;;17.97;100.00
70954;BME280;58618;47.490;8.736;2022-07-04T05:01:02;96944.41;;;17.95;100.00
70954;BME280;58618;47.490;8.736;2022-07-04T05:03:49;96943.63;;;17.95;100.00
70954;BME280;58618;47.490;8.736;2022-07-04T05:06:37;96941.50;;;17.97;100.00
70954;BME280;58618;47.490;8.736;2022-07-04T05:09:24;96955.00;;;18.07;100.00
70954;BME280;58618;47.490;8.736;2022-07-04T05:12:12;96939.94;;;18.04;100.00
70954;BME280;58618;47.490;8.736;2022-07-04T05:14:59;96949.47;;;18.00;100.00
70954;BME280;58618;47.490;8.736;2022-07-04T05:17:48;96955.47;;;18.01;100.00
70954;BME280;58618;47.490;8.736;2022-07-04T05:20:36;96953.16;;;17.99;100.00
70954;BME280;58618;47.490;8.736;2022-07-04T05:23:23;96936.25;;;18.05;100.00
70954;BME280;58618;47.490;8.736;2022-07-04T05:26:11;96951.16;;;17.96;100.00
70954;BME280;58618;47.490;8.736;2022-07-04T05:28:59;96945.47;;;17.94;100.00
70954;BME280;58618;47.490;8.736;2022-07-04T05:31:46;96939.81;;;17.92;100.00
70954;BME280;58618;47.490;8.736;2022-07-04T05:34:35;96958.66;;;17.98;100.00
70954;BME280;58618;47.490;8.736;2022-07-04T05:37:22;96960.53;;;17.97;100.00
70954;BME280;58618;47.490;8.736;2022-07-04T05:40:10;96977.09;;;18.10;100.00
70954;BME280;58618;47.490;8.736;2022-07-04T05:42:58;96975.88;;;18.16;100.00
70954;BME280;58618;47.490;8.736;2022-07-04T05:45:45;96968.00;;;18.25;100.00
70954;BME280;58618;47.490;8.736;2022-07-04T05:48:34;96974.34;;;18.24;100.00
70954;BME280;58618;47.490;8.736;2022-07-04T05:51:23;96964.03;;;18.27;100.00
70954;BME280;58618;47.490;8.736;2022-07-04T05:54:10;96968.16;;;18.37;100.00
70954;BME280;58618;47.490;8.736;2022-07-04T05:56:58;96967.25;;;18.33;100.00
70954;BME280;58618;47.490;8.736;2022-07-04T05:59:45;96959.09;;;18.34;100.00
70954;BME280;58618;47.490;8.736;2022-07-04T06:02:32;96957.09;;;18.40;100.00
70954;BME280;58618;47.490;8.736;2022-07-04T06:05:20;96948.16;;;18.41;100.00
70954;BME280;58618;47.490;8.736;2022-07-04T06:08:08;96959.53;;;18.45;100.00
70954;BME280;58618;47.490;8.736;2022-07-04T06:10:56;96949.09;;;18.45;100.00
70954;BME280;58618;47.490;8.736;2022-07-04T06:13:43;96950.78;;;18.49;100.00
70954;BME280;58618;47.490;8.736;2022-07-04T06:16:31;96937.25;;;18.47;100.00
70954;BME280;58618;47.490;8.736;2022-07-04T06:19:18;96943.22;;;18.65;100.00
70954;BME280;58618;47.490;8.736;2022-07-04T06:22:05;96936.91;;;18.66;100.00
70954;BME280;58618;47.490;8.736;2022-07-04T06:24:54;96924.25;;;18.22;100.00
70954;BME280;58618;47.490;8.736;2022-07-04T06:27:42;96915.94;;;18.20;100.00
70954;BME280;58618;47.490;8.736;2022-07-04T06:30:29;96903.34;;;18.22;100.00
70954;BME280;58618;47.490;8.736;2022-07-04T06:33:17;96879.41;;;18.11;100.00
70954;BME280;58618;47.490;8.736;2022-07-04T06:36:04;96877.25;;;18.22;100.00
70954;BME280;58618;47.490;8.736;2022-07-04T06:38:51;96864.66;;;18.24;100.00
70954;BME280;58618;47.490;8.736;2022-07-04T06:41:39;96827.47;;;18.27;100.00
70954;BME280;58618;47.490;8.736;2022-07-04T06:44:27;96824.13;;;18.18;100.00
70954;BME280;58618;47.490;8.736;2022-07-04T06:47:14;96822.06;;;18.32;100.00
70954;BME280;58618;47.490;8.736;2022-07-04T06:50:02;96825.72;;;18.39;100.00
70954;BME280;58618;47.490;8.736;2022-07-04T06:52:49;96811.97;;;18.51;100.00
70954;BME280;58618;47.490;8.736;2022-07-04T06:55:37;96812.28;;;18.58;100.00
70954;BME280;58618;47.490;8.736;2022-07-04T06:58:26;96801.22;;;18.61;100.00
70954;BME280;58618;47.490;8.736;2022-07-04T07:01:14;96808.50;;;18.76;100.00
70954;BME280;58618;47.490;8.736;2022-07-04T07:04:02;96835.69;;;19.05;100.00
70954;BME280;58618;47.490;8.736;2022-07-04T07:06:49;96846.09;;;19.34;97.89
70954;BME280;58618;47.490;8.736;2022-07-04T07:09:36;96853.44;;;19.61;99.89
70954;BME280;58618;47.490;8.736;2022-07-04T07:12:24;96857.53;;;19.83;98.36
70954;BME280;58618;47.490;8.736;2022-07-04T07:15:15;96842.31;;;19.97;96.75
70954;BME280;58618;47.490;8.736;2022-07-04T07:18:06;96839.84;;;20.25;96.39
70954;BME280;58618;47.490;8.736;2022-07-04T07:20:53;96829.66;;;20.56;94.05
70954;BME280;58618;47.490;8.736;2022-07-04T07:23:41;96818.28;;;20.64;92.78
70954;BME280;58618;47.490;8.736;2022-07-04T07:26:28;96798.38;;;20.76;89.79
70954;BME280;58618;47.490;8.736;2022-07-04T07:29:16;96796.22;;;20.78;90.21
70954;BME280;58618;47.490;8.736;2022-07-04T07:32:06;96816.72;;;20.88;93.38
70954;BME280;58618;47.490;8.736;2022-07-04T07:34:53;96815.50;;;21.65;89.30
70954;BME280;58618;47.490;8.736;2022-07-04T07:37:40;96820.75;;;21.93;87.11
70954;BME280;58618;47.490;8.736;2022-07-04T07:40:28;96848.88;;;21.65;87.79
70954;BME280;58618;47.490;8.736;2022-07-04T07:43:15;96846.47;;;21.72;90.59
70954;BME280;58618;47.490;8.736;2022-07-04T07:46:04;96845.53;;;22.55;85.50
70954;BME280;58618;47.490;8.736;2022-07-04T07:48:53;96843.06;;;22.78;83.11
70954;BME280;58618;47.490;8.736;2022-07-04T07:51:40;96842.97;;;22.74;80.84
70954;BME280;58618;47.490;8.736;2022-07-04T07:54:28;96838.25;;;22.32;81.18
70954;BME280;58618;47.490;8.736;2022-07-04T07:57:15;96860.44;;;23.52;78.22
70954;BME280;58618;47.490;8.736;2022-07-04T08:00:04;96869.53;;;23.96;75.93
70954;BME280;58618;47.490;8.736;2022-07-04T08:02:52;96863.28;;;24.24;72.51
70954;BME280;58618;47.490;8.736;2022-07-04T08:05:58;96864.53;;;24.79;73.20
70954;BME280;58618;47.490;8.736;2022-07-04T08:08:46;96873.09;;;25.25;66.19
70954;BME280;58618;47.490;8.736;2022-07-04T08:11:33;96868.13;;;25.83;65.12
70954;BME280;58618;47.490;8.736;2022-07-04T08:14:20;96856.97;;;24.09;68.48
70954;BME280;58618;47.490;8.736;2022-07-04T08:17:08;96859.56;;;25.00;67.58
70954;BME280;58618;47.490;8.736;2022-07-04T08:19:57;96867.38;;;24.93;69.00
70954;BME280;58618;47.490;8.736;2022-07-04T08:22:45;96866.19;;;25.17;69.65
70954;BME280;58618;47.490;8.736;2022-07-04T08:25:32;96867.22;;;25.69;65.59
70954;BME280;58618;47.490;8.736;2022-07-04T08:28:20;96866.25;;;24.45;66.82
70954;BME280;58618;47.490;8.736;2022-07-04T08:31:07;96852.88;;;24.57;66.93
70954;BME280;58618;47.490;8.736;2022-07-04T08:33:54;96855.72;;;24.71;66.74
70954;BME280;58618;47.490;8.736;2022-07-04T08:36:42;96854.81;;;24.15;68.99
70954;BME280;58618;47.490;8.736;2022-07-04T08:39:30;96859.56;;;24.28;67.06
70954;BME280;58618;47.490;8.736;2022-07-04T08:42:20;96858.63;;;24.40;67.72
70954;BME280;58618;47.490;8.736;2022-07-04T08:45:08;96862.63;;;24.30;69.47
70954;BME280;58618;47.490;8.736;2022-07-04T08:47:59;96856.88;;;24.25;68.73
70954;BME280;58618;47.490;8.736;2022-07-04T08:50:51;96865.94;;;24.05;71.87
70954;BME280;58618;47.490;8.736;2022-07-04T08:53:40;96863.22;;;24.20;70.79
70954;BME280;58618;47.490;8.736;2022-07-04T08:56:32;96852.78;;;24.76;68.81
70954;BME280;58618;47.490;8.736;2022-07-04T08:59:42;96856.28;;;25.40;64.83
70954;BME280;58618;47.490;8.736;2022-07-04T09:02:35;96847.81;;;25.91;63.46
70954;BME280;58618;47.490;8.736;2022-07-04T09:05:23;96852.72;;;25.55;65.40
70954;BME280;58618;47.490;8.736;2022-07-04T09:08:11;96844.75;;;24.69;65.79
70954;BME280;58618;47.490;8.736;2022-07-04T09:10:59;96854.63;;;24.99;68.95
70954;BME280;58618;47.490;8.736;2022-07-04T09:13:48;96844.03;;;24.95;66.46
70954;BME280;58618;47.490;8.736;2022-07-04T09:16:35;96840.53;;;25.17;69.49
70954;BME280;58618;47.490;8.736;2022-07-04T09:19:22;96845.91;;;24.95;63.86
70954;BME280;58618;47.490;8.736;2022-07-04T09:22:10;96848.72;;;25.09;64.80
70954;BME280;58618;47.490;8.736;2022-07-04T09:24:57;96848.91;;;25.23;62.75
70954;BME280;58618;47.490;8.736;2022-07-04T09:27:47;96852.31;;;25.23;61.62
70954;BME280;58618;47.490;8.736;2022-07-04T09:30:46;96862.75;;;26.13;59.60
70954;BME280;58618;47.490;8.736;2022-07-04T09:33:49;96850.34;;;27.26;55.78
70954;BME280;58618;47.490;8.736;2022-07-04T09:36:39;96851.41;;;27.11;55.55
70954;BME280;58618;47.490;8.736;2022-07-04T09:39:27;96859.78;;;26.59;60.77
70954;BME280;58618;47.490;8.736;2022-07-04T09:42:19;96851.66;;;26.37;61.53
70954;BME280;58618;47.490;8.736;2022-07-04T09:45:08;96858.69;;;26.67;60.83
70954;BME280;58618;47.490;8.736;2022-07-04T09:47:58;96856.53;;;25.95;58.78
70954;BME280;58618;47.490;8.736;2022-07-04T09:50:46;96857.59;;;25.23;62.22
70954;BME280;58618;47.490;8.736;2022-07-04T09:53:34;96857.84;;;25.75;64.72
70954;BME280;58618;47.490;8.736;2022-07-04T09:56:38;96847.75;;;26.72;59.49
70954;BME280;58618;47.490;8.736;2022-07-04T09:59:27;96852.25;;;27.26;63.04
70954;BME280;58618;47.490;8.736;2022-07-04T10:02:14;96844.06;;;27.59;59.47
70954;BME280;58618;47.490;8.736;2022-07-04T10:05:07;96840.59;;;25.88;60.80
70954;BME280;58618;47.490;8.736;2022-07-04T10:07:56;96839.94;;;25.98;62.02
70954;BME280;58618;47.490;8.736;2022-07-04T10:10:43;96847.19;;;25.68;59.51
70954;BME280;58618;47.490;8.736;2022-07-04T10:13:31;96837.81;;;24.84;63.36
70954;BME280;58618;47.490;8.736;2022-07-04T10:16:19;96836.38;;;25.46;63.53
70954;BME280;58618;47.490;8.736;2022-07-04T10:19:07;96835.84;;;26.04;62.89
70954;BME280;58618;47.490;8.736;2022-07-04T10:21:56;96819.25;;;26.55;61.43
70954;BME280;58618;47.490;8.736;2022-07-04T10:24:43;96819.31;;;26.62;62.76
70954;BME280;58618;47.490;8.736;2022-07-04T10:27:30;96830.75;;;26.73;62.83
70954;BME280;58618;47.490;8.736;2022-07-04T10:30:22;96842.50;;;26.82;60.96
70954;BME280;58618;47.490;8.736;2022-07-04T10:33:11;96842.75;;;25.45;60.99
70954;BME280;58618;47.490;8.736;2022-07-04T10:36:01;96844.56;;;24.81;63.47
70954;BME280;58618;47.490;8.736;2022-07-04T10:38:51;96840.47;;;24.58;64.12
70954;BME280;58618;47.490;8.736;2022-07-04T10:41:55;96836.41;;;25.16;63.20
70954;BME280;58618;47.490;8.736;2022-07-04T10:44:43;96828.00;;;26.11;62.23
70954;BME280;58618;47.490;8.736;2022-07-04T10:47:30;96831.34;;;26.48;61.06
70954;BME280;58618;47.490;8.736;2022-07-04T10:50:27;96823.69;;;26.36;58.82
70954;BME280;58618;47.490;8.736;2022-07-04T10:53:14;96834.66;;;25.98;58.58
70954;BME280;58618;47.490;8.736;2022-07-04T10:56:34;96829.03;;;25.62;59.71
70954;BME280;58618;47.490;8.736;2022-07-04T10:59:24;96824.19;;;25.38;59.79
70954;BME280;58618;47.490;8.736;2022-07-04T11:02:37;96817.22;;;25.23;58.37
70954;BME280;58618;47.490;8.736;2022-07-04T11:05:30;96817.03;;;25.72;58.33
70954;BME280;58618;47.490;8.736;2022-07-04T11:08:18;96814.28;;;26.02;57.99
70954;BME280;58618;47.490;8.736;2022-07-04T11:14:40;96813.97;;;26.55;56.88
70954;BME280;58618;47.490;8.736;2022-07-04T11:17:36;96809.66;;;26.87;56.60
70954;BME280;58618;47.490;8.736;2022-07-04T11:20:26;96811.28;;;27.09;57.83
70954;BME280;58618;47.490;8.736;2022-07-04T11:23:14;96803.66;;;26.90;59.52
70954;BME280;58618;47.490;8.736;2022-07-04T11:26:02;96800.50;;;26.77;57.41
70954;BME280;58618;47.490;8.736;2022-07-04T11:28:51;96802.03;;;26.75;60.25
70954;BME280;58618;47.490;8.736;2022-07-04T11:31:40;96804.19;;;26.59;59.15
70954;BME280;58618;47.490;8.736;2022-07-04T11:34:30;96796.53;;;26.43;58.58
70954;BME280;58618;47.490;8.736;2022-07-04T11:37:19;96796.88;;;26.38;62.91
70954;BME280;58618;47.490;8.736;2022-07-04T11:40:07;96784.50;;;26.53;58.23
70954;BME280;58618;47.490;8.736;2022-07-04T11:43:09;96784.50;;;26.60;59.34
70954;BME280;58618;47.490;8.736;2022-07-04T11:46:15;96785.31;;;26.64;60.38
70954;BME280;58618;47.490;8.736;2022-07-04T11:49:09;96780.72;;;26.54;60.45
70954;BME280;58618;47.490;8.736;2022-07-04T11:51:56;96777.97;;;26.39;58.25
70954;BME280;58618;47.490;8.736;2022-07-04T11:54:45;96782.22;;;26.55;61.10
70954;BME280;58618;47.490;8.736;2022-07-04T11:57:35;96778.16;;;26.71;58.09
70954;BME280;58618;47.490;8.736;2022-07-04T12:00:25;96776.16;;;26.51;58.52
70954;BME280;58618;47.490;8.736;2022-07-04T12:03:17;96755.63;;;26.33;59.68
70954;BME280;58618;47.490;8.736;2022-07-04T12:06:05;96765.56;;;25.99;58.84
70954;BME280;58618;47.490;8.736;2022-07-04T12:08:52;96765.97;;;26.05;61.15
70954;BME280;58618;47.490;8.736;2022-07-04T12:11:59;96766.03;;;26.12;60.58
70954;BME280;58618;47.490;8.736;2022-07-04T12:15:00;96759.56;;;26.54;59.15
70954;BME280;58618;47.490;8.736;2022-07-04T12:17:50;96751.16;;;26.44;59.84
70954;BME280;58618;47.490;8.736;2022-07-04T12:20:39;96757.91;;;27.04;58.63
70954;BME280;58618;47.490;8.736;2022-07-04T12:23:27;96753.09;;;27.34;54.74
70954;BME280;58618;47.490;8.736;2022-07-04T12:26:15;96743.28;;;27.45;56.52
70954;BME280;58618;47.490;8.736;2022-07-04T12:29:02;96744.09;;;27.60;52.14
70954;BME280;58618;47.490;8.736;2022-07-04T12:31:55;96722.06;;;27.27;54.49
70954;BME280;58618;47.490;8.736;2022-07-04T12:34:42;96712.97;;;27.32;53.38
70954;BME280;58618;47.490;8.736;2022-07-04T12:37:31;96693.25;;;27.15;55.71
70954;BME280;58618;47.490;8.736;2022-07-04T12:40:18;96701.44;;;26.75;53.45
70954;BME280;58618;47.490;8.736;2022-07-04T12:43:08;96699.31;;;27.12;56.45
70954;BME280;58618;47.490;8.736;2022-07-04T12:45:56;96685.72;;;27.35;57.11
70954;BME280;58618;47.490;8.736;2022-07-04T12:48:48;96674.00;;;27.43;57.55
70954;BME280;58618;47.490;8.736;2022-07-04T12:51:36;96675.88;;;27.28;52.98
70954;BME280;58618;47.490;8.736;2022-07-04T12:54:25;96669.00;;;27.03;53.29
70954;BME280;58618;47.490;8.736;2022-07-04T12:57:13;96669.66;;;26.75;54.17
70954;BME280;58618;47.490;8.736;2022-07-04T13:00:02;96671.78;;;26.44;55.20
70954;BME280;58618;47.490;8.736;2022-07-04T13:02:50;96674.78;;;26.39;56.74
70954;BME280;58618;47.490;8.736;2022-07-04T13:05:37;96669.06;;;26.27;56.82
70954;BME280;58618;47.490;8.736;2022-07-04T13:08:25;96658.00;;;26.14;54.10
70954;BME280;58618;47.490;8.736;2022-07-04T13:11:14;96654.88;;;25.98;54.14
70954;BME280;58618;47.490;8.736;2022-07-04T13:14:19;96652.53;;;25.86;53.87
70954;BME280;58618;47.490;8.736;2022-07-04T13:17:07;96645.25;;;25.69;55.11
70954;BME280;58618;47.490;8.736;2022-07-04T13:19:54;96655.19;;;25.42;56.53
70954;BME280;58618;47.490;8.736;2022-07-04T13:22:43;96655.22;;;25.49;59.19
70954;BME280;58618;47.490;8.736;2022-07-04T13:25:30;96663.66;;;25.58;56.41
70954;BME280;58618;47.490;8.736;2022-07-04T13:28:19;96659.06;;;25.55;58.14
70954;BME280;58618;47.490;8.736;2022-07-04T13:31:06;96662.16;;;25.60;57.69
70954;BME280;58618;47.490;8.736;2022-07-04T13:33:54;96662.22;;;25.68;56.77
70954;BME280;58618;47.490;8.736;2022-07-04T13:36:41;96656.31;;;25.85;56.25
70954;BME280;58618;47.490;8.736;2022-07-04T13:39:29;96662.41;;;25.92;60.96
70954;BME280;58618;47.490;8.736;2022-07-04T13:42:19;96663.41;;;25.74;63.10
70954;BME280;58618;47.490;8.736;2022-07-04T13:45:24;96669.22;;;25.97;56.69
70954;BME280;58618;47.490;8.736;2022-07-04T13:48:13;96674.63;;;26.11;57.00
70954;BME280;58618;47.490;8.736;2022-07-04T13:51:03;96679.25;;;26.28;54.33
70954;BME280;58618;47.490;8.736;2022-07-04T13:53:50;96682.72;;;26.36;54.48
70954;BME280;58618;47.490;8.736;2022-07-04T13:56:39;96696.00;;;26.43;59.79
70954;BME280;58618;47.490;8.736;2022-07-04T13:59:26;96688.34;;;26.27;62.49
70954;BME280;58618;47.490;8.736;2022-07-04T14:02:15;96687.28;;;25.88;64.16
70954;BME280;58618;47.490;8.736;2022-07-04T14:05:02;96697.03;;;25.77;64.42
70954;BME280;58618;47.490;8.736;2022-07-04T14:07:50;96708.94;;;25.56;65.80
70954;BME280;58618;47.490;8.736;2022-07-04T14:10:37;96723.44;;;25.03;65.25
70954;BME280;58618;47.490;8.736;2022-07-04T14:13:28;96721.75;;;24.88;69.77
70954;BME280;58618;47.490;8.736;2022-07-04T14:16:15;96725.09;;;24.55;67.94
70954;BME280;58618;47.490;8.736;2022-07-04T14:19:06;96739.66;;;24.19;69.32
70954;BME280;58618;47.490;8.736;2022-07-04T14:21:54;96736.25;;;23.95;67.93
70954;BME280;58618;47.490;8.736;2022-07-04T14:24:42;96722.47;;;23.79;68.62
70954;BME280;58618;47.490;8.736;2022-07-04T14:27:29;96721.34;;;23.58;71.12
70954;BME280;58618;47.490;8.736;2022-07-04T14:30:16;96721.56;;;23.30;67.18
70954;BME280;58618;47.490;8.736;2022-07-04T14:33:04;96732.66;;;23.20;71.02
70954;BME280;58618;47.490;8.736;2022-07-04T14:35:53;96747.06;;;23.06;71.29
70954;BME280;58618;47.490;8.736;2022-07-04T14:38:40;96756.00;;;22.83;74.40
70954;BME280;58618;47.490;8.736;2022-07-04T14:41:27;96765.28;;;22.61;75.56
70954;BME280;58618;47.490;8.736;2022-07-04T14:44:15;96765.34;;;22.29;75.74
70954;BME280;58618;47.490;8.736;2022-07-04T14:47:03;96766.69;;;22.08;73.13
70954;BME280;58618;47.490;8.736;2022-07-04T14:49:50;96768.03;;;21.86;73.59
70954;BME280;58618;47.490;8.736;2022-07-04T14:52:39;96751.06;;;21.68;78.21